sensor_id;sensor_type;location;lat;lon;timestamp;P1;durP1;ratioP1;P2;durP2;ratioP2
74523;SDS011;63074;44.696;10.358;2024-03-07T00:00:10;3.22;;;1.60;;
74523;SDS011;63074;44.696;10.358;2024-03-07T00:05:11;2.47;;;1.77;;
74523;SDS011;63074;44.696;10.358;2024-03-07T00:07:40;3.47;;;1.63;;
74523;SDS011;63074;44.696;10.358;2024-03-07T00:10:07;3.20;;;1.42;;
74523;SDS011;63074;44.696;10.358;2024-03-07T00:12:34;3.58;;;1.85;;
74523;SDS011;63074;44.696;10.358;2024-03-07T00:15:05;3.53;;;1.75;;
74523;SDS011;63074;44.696;10.358;2024-03-07T00:17:32;3.67;;;2.25;;
74523;SDS011;63074;44.696;10.358;2024-03-07T00:19:59;3.78;;;2.20;;
74523;SDS011;63074;44.696;10.358;2024-03-07T00:22:26;4.30;;;2.67;;
74523;SDS011;63074;44.696;10.358;2024-03-07T00:24:55;5.65;;;2.50;;
74523;SDS011;63074;44.696;10.358;2024-03-07T00:27:21;4.05;;;2.17;;
74523;SDS011;63074;44.696;10.358;2024-03-07T00:29:48;4.13;;;2.50;;
74523;SDS011;63074;44.696;10.358;2024-03-07T00:32:21;6.72;;;2.63;;
74523;SDS011;63074;44.696;10.358;2024-03-07T00:34:47;5.15;;;2.35;;
74523;SDS011;63074;44.696;10.358;2024-03-07T00:37:15;2.97;;;2.38;;
74523;SDS011;63074;44.696;10.358;2024-03-07T00:39:42;5.57;;;2.92;;
74523;SDS011;63074;44.696;10.358;2024-03-07T00:42:08;4.55;;;2.65;;
74523;SDS011;63074;44.696;10.358;2024-03-07T00:44:35;6.82;;;2.25;;
74523;SDS011;63074;44.696;10.358;2024-03-07T00:47:01;4.80;;;1.65;;
74523;SDS011;63074;44.696;10.358;2024-03-07T00:49:28;3.67;;;2.42;;
74523;SDS011;63074;44.696;10.358;2024-03-07T00:51:55;3.35;;;2.35;;
74523;SDS011;63074;44.696;10.358;2024-03-07T00:54:22;4.30;;;1.83;;
74523;SDS011;63074;44.696;10.358;2024-03-07T00:56:49;2.92;;;1.85;;
74523;SDS011;63074;44.696;10.358;2024-03-07T00:59:15;5.75;;;1.90;;
74523;SDS011;63074;44.696;10.358;2024-03-07T01:01:42;4.15;;;2.58;;
74523;SDS011;63074;44.696;10.358;2024-03-07T01:04:08;3.63;;;2.47;;
74523;SDS011;63074;44.696;10.358;2024-03-07T01:06:34;3.05;;;2.17;;
74523;SDS011;63074;44.696;10.358;2024-03-07T01:09:01;3.30;;;2.70;;
74523;SDS011;63074;44.696;10.358;2024-03-07T01:11:28;5.75;;;2.55;;
74523;SDS011;63074;44.696;10.358;2024-03-07T01:13:54;4.15;;;2.00;;
74523;SDS011;63074;44.696;10.358;2024-03-07T01:16:21;3.40;;;2.17;;
74523;SDS011;63074;44.696;10.358;2024-03-07T01:18:48;3.83;;;2.33;;
74523;SDS011;63074;44.696;10.358;2024-03-07T01:21:14;4.57;;;2.28;;
74523;SDS011;63074;44.696;10.358;2024-03-07T01:23:40;3.50;;;2.15;;
74523;SDS011;63074;44.696;10.358;2024-03-07T01:26:06;2.65;;;1.70;;
74523;SDS011;63074;44.696;10.358;2024-03-07T01:28:33;3.72;;;2.28;;
74523;SDS011;63074;44.696;10.358;2024-03-07T01:30:59;3.78;;;2.30;;
74523;SDS011;63074;44.696;10.358;2024-03-07T01:33:26;3.55;;;2.35;;
74523;SDS011;63074;44.696;10.358;2024-03-07T01:35:52;4.20;;;2.58;;
74523;SDS011;63074;44.696;10.358;2024-03-07T01:38:18;2.97;;;1.77;;
74523;SDS011;63074;44.696;10.358;2024-03-07T01:40:44;3.88;;;2.38;;
74523;SDS011;63074;44.696;10.358;2024-03-07T01:43:10;3.30;;;1.77;;
74523;SDS011;63074;44.696;10.358;2024-03-07T01:45:37;5.85;;;2.58;;
74523;SDS011;63074;44.696;10.358;2024-03-07T01:48:04;3.08;;;1.60;;
74523;SDS011;63074;44.696;10.358;2024-03-07T01:50:33;2.78;;;2.33;;
74523;SDS011;63074;44.696;10.358;2024-03-07T01:53:03;5.55;;;2.08;;
74523;SDS011;63074;44.696;10.358;2024-03-07T01:55:31;4.75;;;2.30;;
74523;SDS011;63074;44.696;10.358;2024-03-07T01:58:01;5.60;;;2.30;;
74523;SDS011;63074;44.696;10.358;2024-03-07T02:00:29;3.10;;;2.35;;
74523;SDS011;63074;44.696;10.358;2024-03-07T02:02:56;4.07;;;2.33;;
74523;SDS011;63074;44.696;10.358;2024-03-07T02:05:22;5.47;;;2.15;;
74523;SDS011;63074;44.696;10.358;2024-03-07T02:07:49;3.58;;;2.25;;
74523;SDS011;63074;44.696;10.358;2024-03-07T02:10:16;3.17;;;1.88;;
74523;SDS011;63074;44.696;10.358;2024-03-07T02:12:43;5.68;;;2.28;;
74523;SDS011;63074;44.696;10.358;2024-03-07T02:15:10;3.30;;;1.92;;
74523;SDS011;63074;44.696;10.358;2024-03-07T02:17:38;3.95;;;2.05;;
74523;SDS011;63074;44.696;10.358;2024-03-07T02:20:05;3.88;;;1.92;;
74523;SDS011;63074;44.696;10.358;2024-03-07T02:22:33;3.58;;;1.73;;
74523;SDS011;63074;44.696;10.358;2024-03-07T02:24:59;2.95;;;1.73;;
74523;SDS011;63074;44.696;10.358;2024-03-07T02:27:25;2.63;;;1.38;;
74523;SDS011;63074;44.696;10.358;2024-03-07T02:29:51;2.30;;;1.48;;
74523;SDS011;63074;44.696;10.358;2024-03-07T02:32:17;3.83;;;1.80;;
74523;SDS011;63074;44.696;10.358;2024-03-07T02:34:43;3.67;;;1.73;;
74523;SDS011;63074;44.696;10.358;2024-03-07T02:37:12;2.40;;;1.13;;
74523;SDS011;63074;44.696;10.358;2024-03-07T02:39:38;2.10;;;1.30;;
74523;SDS011;63074;44.696;10.358;2024-03-07T02:42:05;2.30;;;1.70;;
74523;SDS011;63074;44.696;10.358;2024-03-07T02:44:31;3.88;;;1.70;;
74523;SDS011;63074;44.696;10.358;2024-03-07T02:46:58;2.83;;;1.05;;
74523;SDS011;63074;44.696;10.358;2024-03-07T02:51:54;4.00;;;1.55;;
74523;SDS011;63074;44.696;10.358;2024-03-07T02:54:20;2.83;;;1.13;;
74523;SDS011;63074;44.696;10.358;2024-03-07T02:56:46;4.65;;;1.65;;
74523;SDS011;63074;44.696;10.358;2024-03-07T02:59:13;3.25;;;1.48;;
74523;SDS011;63074;44.696;10.358;2024-03-07T03:01:39;2.92;;;1.52;;
74523;SDS011;63074;44.696;10.358;2024-03-07T03:04:05;3.97;;;1.88;;
74523;SDS011;63074;44.696;10.358;2024-03-07T03:06:32;4.88;;;1.55;;
74523;SDS011;63074;44.696;10.358;2024-03-07T03:08:58;3.45;;;1.85;;
74523;SDS011;63074;44.696;10.358;2024-03-07T03:11:25;2.13;;;1.42;;
74523;SDS011;63074;44.696;10.358;2024-03-07T03:13:52;3.78;;;1.85;;
74523;SDS011;63074;44.696;10.358;2024-03-07T03:16:18;3.97;;;2.03;;
74523;SDS011;63074;44.696;10.358;2024-03-07T03:18:44;3.17;;;1.60;;
74523;SDS011;63074;44.696;10.358;2024-03-07T03:21:10;3.25;;;1.92;;
74523;SDS011;63074;44.696;10.358;2024-03-07T03:23:37;4.50;;;2.05;;
74523;SDS011;63074;44.696;10.358;2024-03-07T03:26:03;3.38;;;1.95;;
74523;SDS011;63074;44.696;10.358;2024-03-07T03:28:29;3.70;;;2.30;;
74523;SDS011;63074;44.696;10.358;2024-03-07T03:30:55;5.22;;;1.88;;
74523;SDS011;63074;44.696;10.358;2024-03-07T03:33:22;4.95;;;2.08;;
74523;SDS011;63074;44.696;10.358;2024-03-07T03:35:48;3.50;;;1.65;;
74523;SDS011;63074;44.696;10.358;2024-03-07T03:38:14;2.55;;;1.60;;
74523;SDS011;63074;44.696;10.358;2024-03-07T03:40:41;3.22;;;2.08;;
74523;SDS011;63074;44.696;10.358;2024-03-07T03:43:07;4.35;;;2.10;;
74523;SDS011;63074;44.696;10.358;2024-03-07T03:45:33;4.80;;;1.73;;
74523;SDS011;63074;44.696;10.358;2024-03-07T03:47:59;3.22;;;1.67;;
74523;SDS011;63074;44.696;10.358;2024-03-07T03:50:26;4.05;;;2.30;;
74523;SDS011;63074;44.696;10.358;2024-03-07T03:52:53;3.33;;;2.08;;
74523;SDS011;63074;44.696;10.358;2024-03-07T03:55:20;3.75;;;2.08;;
74523;SDS011;63074;44.696;10.358;2024-03-07T03:57:46;3.17;;;1.83;;
74523;SDS011;63074;44.696;10.358;2024-03-07T04:00:13;4.07;;;2.10;;
74523;SDS011;63074;44.696;10.358;2024-03-07T04:02:40;3.03;;;1.55;;
74523;SDS011;63074;44.696;10.358;2024-03-07T04:05:07;4.50;;;1.98;;
74523;SDS011;63074;44.696;10.358;2024-03-07T04:07:34;3.72;;;1.73;;
74523;SDS011;63074;44.696;10.358;2024-03-07T04:10:02;4.88;;;2.20;;
74523;SDS011;63074;44.696;10.358;2024-03-07T04:12:29;3.80;;;2.33;;
74523;SDS011;63074;44.696;10.358;2024-03-07T04:14:55;3.67;;;1.77;;
74523;SDS011;63074;44.696;10.358;2024-03-07T04:17:21;3.88;;;1.85;;
74523;SDS011;63074;44.696;10.358;2024-03-07T04:19:47;5.30;;;1.98;;
74523;SDS011;63074;44.696;10.358;2024-03-07T04:22:13;4.75;;;1.88;;
74523;SDS011;63074;44.696;10.358;2024-03-07T04:24:40;3.63;;;2.20;;
74523;SDS011;63074;44.696;10.358;2024-03-07T04:27:07;3.90;;;1.85;;
74523;SDS011;63074;44.696;10.358;2024-03-07T04:29:34;3.17;;;2.20;;
74523;SDS011;63074;44.696;10.358;2024-03-07T04:32:00;6.35;;;2.72;;
74523;SDS011;63074;44.696;10.358;2024-03-07T04:34:28;5.38;;;2.45;;
74523;SDS011;63074;44.696;10.358;2024-03-07T04:36:58;5.20;;;2.30;;
74523;SDS011;63074;44.696;10.358;2024-03-07T04:39:26;4.07;;;2.33;;
74523;SDS011;63074;44.696;10.358;2024-03-07T04:42:04;6.68;;;2.08;;
74523;SDS011;63074;44.696;10.358;2024-03-07T04:44:32;4.22;;;2.42;;
74523;SDS011;63074;44.696;10.358;2024-03-07T04:47:00;7.07;;;2.80;;
74523;SDS011;63074;44.696;10.358;2024-03-07T04:49:29;5.05;;;3.05;;
74523;SDS011;63074;44.696;10.358;2024-03-07T04:51:56;6.57;;;4.53;;
74523;SDS011;63074;44.696;10.358;2024-03-07T04:54:24;4.63;;;3.25;;
74523;SDS011;63074;44.696;10.358;2024-03-07T04:56:51;6.25;;;3.30;;
74523;SDS011;63074;44.696;10.358;2024-03-07T04:59:19;5.75;;;4.50;;
74523;SDS011;63074;44.696;10.358;2024-03-07T05:01:46;6.18;;;4.38;;
74523;SDS011;63074;44.696;10.358;2024-03-07T05:04:13;6.63;;;3.55;;
74523;SDS011;63074;44.696;10.358;2024-03-07T05:06:41;6.82;;;4.05;;
74523;SDS011;63074;44.696;10.358;2024-03-07T05:09:08;5.20;;;2.92;;
74523;SDS011;63074;44.696;10.358;2024-03-07T05:11:47;6.38;;;2.67;;
74523;SDS011;63074;44.696;10.358;2024-03-07T05:16:44;5.18;;;2.25;;
74523;SDS011;63074;44.696;10.358;2024-03-07T05:19:10;3.28;;;2.75;;
74523;SDS011;63074;44.696;10.358;2024-03-07T05:21:36;5.50;;;2.80;;
74523;SDS011;63074;44.696;10.358;2024-03-07T05:24:04;3.95;;;3.10;;
74523;SDS011;63074;44.696;10.358;2024-03-07T05:26:33;7.72;;;3.60;;
74523;SDS011;63074;44.696;10.358;2024-03-07T05:29:05;7.78;;;7.07;;
74523;SDS011;63074;44.696;10.358;2024-03-07T05:31:33;7.97;;;6.13;;
74523;SDS011;63074;44.696;10.358;2024-03-07T05:34:01;8.38;;;3.90;;
74523;SDS011;63074;44.696;10.358;2024-03-07T05:36:34;4.85;;;4.15;;
74523;SDS011;63074;44.696;10.358;2024-03-07T05:39:02;5.90;;;4.18;;
74523;SDS011;63074;44.696;10.358;2024-03-07T05:41:34;5.53;;;3.65;;
74523;SDS011;63074;44.696;10.358;2024-03-07T05:44:00;7.05;;;4.68;;
74523;SDS011;63074;44.696;10.358;2024-03-07T05:46:27;6.30;;;4.07;;
74523;SDS011;63074;44.696;10.358;2024-03-07T05:48:53;5.20;;;2.83;;
74523;SDS011;63074;44.696;10.358;2024-03-07T05:51:24;4.10;;;2.70;;
74523;SDS011;63074;44.696;10.358;2024-03-07T05:53:50;4.43;;;2.72;;
74523;SDS011;63074;44.696;10.358;2024-03-07T05:56:16;3.38;;;2.42;;
74523;SDS011;63074;44.696;10.358;2024-03-07T05:58:43;5.38;;;2.20;;
74523;SDS011;63074;44.696;10.358;2024-03-07T06:01:09;3.80;;;2.05;;
74523;SDS011;63074;44.696;10.358;2024-03-07T06:03:36;4.45;;;2.35;;
74523;SDS011;63074;44.696;10.358;2024-03-07T06:06:02;6.85;;;2.00;;
74523;SDS011;63074;44.696;10.358;2024-03-07T06:08:31;4.30;;;2.45;;
74523;SDS011;63074;44.696;10.358;2024-03-07T06:10:57;3.80;;;2.20;;
74523;SDS011;63074;44.696;10.358;2024-03-07T06:13:24;4.70;;;2.10;;
74523;SDS011;63074;44.696;10.358;2024-03-07T06:15:50;5.13;;;1.92;;
74523;SDS011;63074;44.696;10.358;2024-03-07T06:18:16;3.50;;;2.17;;
74523;SDS011;63074;44.696;10.358;2024-03-07T06:20:43;4.43;;;2.22;;
74523;SDS011;63074;44.696;10.358;2024-03-07T06:23:10;3.92;;;1.70;;
74523;SDS011;63074;44.696;10.358;2024-03-07T06:25:41;3.53;;;1.98;;
74523;SDS011;63074;44.696;10.358;2024-03-07T06:28:17;4.50;;;2.28;;
74523;SDS011;63074;44.696;10.358;2024-03-07T06:30:43;4.90;;;2.70;;
74523;SDS011;63074;44.696;10.358;2024-03-07T06:33:11;4.72;;;2.65;;
74523;SDS011;63074;44.696;10.358;2024-03-07T06:35:39;4.80;;;3.05;;
74523;SDS011;63074;44.696;10.358;2024-03-07T06:38:06;4.55;;;2.92;;
74523;SDS011;63074;44.696;10.358;2024-03-07T06:40:37;6.65;;;3.20;;
74523;SDS011;63074;44.696;10.358;2024-03-07T06:43:05;8.35;;;3.13;;
74523;SDS011;63074;44.696;10.358;2024-03-07T06:45:34;4.38;;;2.83;;
74523;SDS011;63074;44.696;10.358;2024-03-07T06:48:02;5.82;;;2.60;;
74523;SDS011;63074;44.696;10.358;2024-03-07T06:50:37;5.05;;;3.33;;
74523;SDS011;63074;44.696;10.358;2024-03-07T06:53:04;7.07;;;3.13;;
74523;SDS011;63074;44.696;10.358;2024-03-07T06:55:32;7.00;;;2.97;;
74523;SDS011;63074;44.696;10.358;2024-03-07T06:58:02;6.32;;;2.95;;
74523;SDS011;63074;44.696;10.358;2024-03-07T07:00:32;6.30;;;3.13;;
74523;SDS011;63074;44.696;10.358;2024-03-07T07:03:01;7.75;;;3.22;;
74523;SDS011;63074;44.696;10.358;2024-03-07T07:05:30;6.38;;;2.58;;
74523;SDS011;63074;44.696;10.358;2024-03-07T07:07:56;5.03;;;3.05;;
74523;SDS011;63074;44.696;10.358;2024-03-07T07:10:22;5.38;;;3.35;;
74523;SDS011;63074;44.696;10.358;2024-03-07T07:12:49;5.22;;;2.72;;
74523;SDS011;63074;44.696;10.358;2024-03-07T07:15:20;4.00;;;2.60;;
74523;SDS011;63074;44.696;10.358;2024-03-07T07:17:46;4.90;;;2.30;;
74523;SDS011;63074;44.696;10.358;2024-03-07T07:20:17;4.65;;;2.58;;
74523;SDS011;63074;44.696;10.358;2024-03-07T07:22:44;4.45;;;1.90;;
74523;SDS011;63074;44.696;10.358;2024-03-07T07:25:12;5.68;;;2.30;;
74523;SDS011;63074;44.696;10.358;2024-03-07T07:30:13;3.90;;;1.80;;
74523;SDS011;63074;44.696;10.358;2024-03-07T07:32:43;3.38;;;1.95;;
74523;SDS011;63074;44.696;10.358;2024-03-07T07:35:10;4.25;;;2.15;;
74523;SDS011;63074;44.696;10.358;2024-03-07T07:37:47;7.03;;;3.58;;
74523;SDS011;63074;44.696;10.358;2024-03-07T07:40:15;5.38;;;2.97;;
74523;SDS011;63074;44.696;10.358;2024-03-07T07:42:47;8.13;;;2.65;;
74523;SDS011;63074;44.696;10.358;2024-03-07T07:45:17;6.05;;;3.15;;
74523;SDS011;63074;44.696;10.358;2024-03-07T07:47:44;3.15;;;2.47;;
74523;SDS011;63074;44.696;10.358;2024-03-07T07:50:14;4.60;;;2.50;;
74523;SDS011;63074;44.696;10.358;2024-03-07T07:52:51;5.55;;;2.55;;
74523;SDS011;63074;44.696;10.358;2024-03-07T07:55:19;4.47;;;2.45;;
74523;SDS011;63074;44.696;10.358;2024-03-07T07:57:47;6.63;;;2.38;;
74523;SDS011;63074;44.696;10.358;2024-03-07T08:00:17;6.80;;;2.70;;
74523;SDS011;63074;44.696;10.358;2024-03-07T08:02:54;3.53;;;2.40;;
74523;SDS011;63074;44.696;10.358;2024-03-07T08:05:22;4.20;;;2.28;;
74523;SDS011;63074;44.696;10.358;2024-03-07T08:07:50;4.85;;;2.45;;
74523;SDS011;63074;44.696;10.358;2024-03-07T08:10:20;4.78;;;2.42;;
74523;SDS011;63074;44.696;10.358;2024-03-07T08:12:49;5.00;;;2.72;;
74523;SDS011;63074;44.696;10.358;2024-03-07T08:15:15;4.68;;;2.67;;
74523;SDS011;63074;44.696;10.358;2024-03-07T08:17:42;4.95;;;2.13;;
74523;SDS011;63074;44.696;10.358;2024-03-07T08:20:12;4.03;;;2.22;;
74523;SDS011;63074;44.696;10.358;2024-03-07T08:22:40;4.40;;;2.17;;
74523;SDS011;63074;44.696;10.358;2024-03-07T08:25:11;4.30;;;2.17;;
74523;SDS011;63074;44.696;10.358;2024-03-07T08:27:39;3.95;;;2.20;;
74523;SDS011;63074;44.696;10.358;2024-03-07T08:30:10;4.07;;;2.30;;
74523;SDS011;63074;44.696;10.358;2024-03-07T08:32:48;3.78;;;1.98;;
74523;SDS011;63074;44.696;10.358;2024-03-07T08:35:19;4.40;;;1.77;;
74523;SDS011;63074;44.696;10.358;2024-03-07T08:37:46;2.90;;;1.75;;
74523;SDS011;63074;44.696;10.358;2024-03-07T08:40:21;3.38;;;1.65;;
74523;SDS011;63074;44.696;10.358;2024-03-07T08:42:57;6.10;;;1.88;;
74523;SDS011;63074;44.696;10.358;2024-03-07T08:45:27;3.17;;;1.80;;
74523;SDS011;63074;44.696;10.358;2024-03-07T08:50:21;3.50;;;2.22;;
74523;SDS011;63074;44.696;10.358;2024-03-07T08:52:48;6.32;;;1.77;;
74523;SDS011;63074;44.696;10.358;2024-03-07T08:55:15;3.00;;;1.73;;
74523;SDS011;63074;44.696;10.358;2024-03-07T08:57:44;3.22;;;2.40;;
74523;SDS011;63074;44.696;10.358;2024-03-07T09:00:11;3.00;;;1.75;;
74523;SDS011;63074;44.696;10.358;2024-03-07T09:02:49;4.43;;;1.92;;
74523;SDS011;63074;44.696;10.358;2024-03-07T09:05:19;3.20;;;1.92;;
74523;SDS011;63074;44.696;10.358;2024-03-07T09:07:50;5.63;;;2.60;;
74523;SDS011;63074;44.696;10.358;2024-03-07T09:10:17;3.15;;;1.75;;
74523;SDS011;63074;44.696;10.358;2024-03-07T09:12:44;4.88;;;2.15;;
74523;SDS011;63074;44.696;10.358;2024-03-07T09:15:10;3.55;;;1.55;;
74523;SDS011;63074;44.696;10.358;2024-03-07T09:17:37;3.75;;;1.73;;
74523;SDS011;63074;44.696;10.358;2024-03-07T09:20:04;3.95;;;1.92;;
74523;SDS011;63074;44.696;10.358;2024-03-07T09:22:31;3.17;;;2.00;;
74523;SDS011;63074;44.696;10.358;2024-03-07T09:24:58;3.53;;;1.58;;
74523;SDS011;63074;44.696;10.358;2024-03-07T09:27:24;2.63;;;1.63;;
74523;SDS011;63074;44.696;10.358;2024-03-07T09:29:50;5.82;;;2.85;;
74523;SDS011;63074;44.696;10.358;2024-03-07T09:32:16;3.97;;;1.83;;
74523;SDS011;63074;44.696;10.358;2024-03-07T09:34:43;6.88;;;2.28;;
74523;SDS011;63074;44.696;10.358;2024-03-07T09:37:09;5.47;;;1.88;;
74523;SDS011;63074;44.696;10.358;2024-03-07T09:39:35;4.30;;;1.50;;
74523;SDS011;63074;44.696;10.358;2024-03-07T09:42:02;3.42;;;1.40;;
74523;SDS011;63074;44.696;10.358;2024-03-07T09:44:38;6.22;;;2.47;;
74523;SDS011;63074;44.696;10.358;2024-03-07T09:47:05;3.72;;;1.48;;
74523;SDS011;63074;44.696;10.358;2024-03-07T09:49:32;3.78;;;1.60;;
74523;SDS011;63074;44.696;10.358;2024-03-07T09:52:03;4.40;;;1.92;;
74523;SDS011;63074;44.696;10.358;2024-03-07T09:54:33;4.95;;;1.92;;
74523;SDS011;63074;44.696;10.358;2024-03-07T09:57:00;3.55;;;2.22;;
74523;SDS011;63074;44.696;10.358;2024-03-07T09:59:32;3.70;;;1.90;;
74523;SDS011;63074;44.696;10.358;2024-03-07T10:02:01;3.53;;;1.75;;
74523;SDS011;63074;44.696;10.358;2024-03-07T10:04:31;4.07;;;2.05;;
74523;SDS011;63074;44.696;10.358;2024-03-07T10:07:06;2.92;;;1.77;;
74523;SDS011;63074;44.696;10.358;2024-03-07T10:09:37;3.42;;;1.88;;
74523;SDS011;63074;44.696;10.358;2024-03-07T10:12:05;2.60;;;1.60;;
74523;SDS011;63074;44.696;10.358;2024-03-07T10:14:37;4.13;;;2.53;;
74523;SDS011;63074;44.696;10.358;2024-03-07T10:17:04;3.92;;;1.83;;
74523;SDS011;63074;44.696;10.358;2024-03-07T10:19:30;5.88;;;2.15;;
74523;SDS011;63074;44.696;10.358;2024-03-07T10:21:57;3.47;;;1.52;;
74523;SDS011;63074;44.696;10.358;2024-03-07T10:24:26;3.63;;;1.25;;
74523;SDS011;63074;44.696;10.358;2024-03-07T10:26:53;3.17;;;1.70;;
74523;SDS011;63074;44.696;10.358;2024-03-07T10:29:23;3.67;;;1.38;;
74523;SDS011;63074;44.696;10.358;2024-03-07T10:31:49;3.08;;;1.30;;
74523;SDS011;63074;44.696;10.358;2024-03-07T10:34:16;4.13;;;1.67;;
74523;SDS011;63074;44.696;10.358;2024-03-07T10:36:42;4.03;;;2.22;;
74523;SDS011;63074;44.696;10.358;2024-03-07T10:39:09;3.45;;;2.15;;
74523;SDS011;63074;44.696;10.358;2024-03-07T10:41:45;5.50;;;2.13;;
74523;SDS011;63074;44.696;10.358;2024-03-07T10:44:15;3.05;;;1.30;;
74523;SDS011;63074;44.696;10.358;2024-03-07T10:46:51;2.88;;;1.55;;
74523;SDS011;63074;44.696;10.358;2024-03-07T10:49:19;2.28;;;1.13;;
74523;SDS011;63074;44.696;10.358;2024-03-07T10:51:53;4.35;;;2.38;;
74523;SDS011;63074;44.696;10.358;2024-03-07T10:57:20;4.50;;;1.85;;
74523;SDS011;63074;44.696;10.358;2024-03-07T11:00:07;4.88;;;2.22;;
74523;SDS011;63074;44.696;10.358;2024-03-07T11:02:54;3.35;;;1.92;;
74523;SDS011;63074;44.696;10.358;2024-03-07T11:05:24;4.05;;;1.75;;
74523;SDS011;63074;44.696;10.358;2024-03-07T11:07:54;5.85;;;1.90;;
74523;SDS011;63074;44.696;10.358;2024-03-07T11:10:23;6.40;;;2.42;;
74523;SDS011;63074;44.696;10.358;2024-03-07T11:12:50;4.20;;;2.22;;
74523;SDS011;63074;44.696;10.358;2024-03-07T11:15:19;5.47;;;2.45;;
74523;SDS011;63074;44.696;10.358;2024-03-07T11:17:48;3.30;;;2.10;;
74523;SDS011;63074;44.696;10.358;2024-03-07T11:20:25;5.70;;;1.98;;
74523;SDS011;63074;44.696;10.358;2024-03-07T11:22:58;4.47;;;2.72;;
74523;SDS011;63074;44.696;10.358;2024-03-07T11:25:26;4.18;;;2.22;;
74523;SDS011;63074;44.696;10.358;2024-03-07T11:27:59;4.82;;;2.80;;
74523;SDS011;63074;44.696;10.358;2024-03-07T11:30:27;2.92;;;1.95;;
74523;SDS011;63074;44.696;10.358;2024-03-07T11:32:54;4.15;;;1.73;;
74523;SDS011;63074;44.696;10.358;2024-03-07T11:35:21;4.65;;;2.10;;
74523;SDS011;63074;44.696;10.358;2024-03-07T11:37:57;4.20;;;2.20;;
74523;SDS011;63074;44.696;10.358;2024-03-07T11:42:51;5.28;;;2.90;;
74523;SDS011;63074;44.696;10.358;2024-03-07T11:45:19;4.28;;;2.22;;
74523;SDS011;63074;44.696;10.358;2024-03-07T11:50:32;4.65;;;2.13;;
74523;SDS011;63074;44.696;10.358;2024-03-07T11:53:02;3.70;;;2.00;;
74523;SDS011;63074;44.696;10.358;2024-03-07T11:55:35;4.07;;;2.08;;
74523;SDS011;63074;44.696;10.358;2024-03-07T11:58:19;4.40;;;2.28;;
74523;SDS011;63074;44.696;10.358;2024-03-07T12:00:46;4.03;;;2.20;;
74523;SDS011;63074;44.696;10.358;2024-03-07T12:03:14;3.33;;;2.00;;
74523;SDS011;63074;44.696;10.358;2024-03-07T12:05:46;3.80;;;1.88;;
74523;SDS011;63074;44.696;10.358;2024-03-07T12:08:12;4.28;;;2.35;;
74523;SDS011;63074;44.696;10.358;2024-03-07T12:10:40;3.55;;;1.55;;
74523;SDS011;63074;44.696;10.358;2024-03-07T12:13:10;3.90;;;1.48;;
74523;SDS011;63074;44.696;10.358;2024-03-07T12:15:38;3.38;;;1.80;;
74523;SDS011;63074;44.696;10.358;2024-03-07T12:18:05;3.28;;;1.98;;
74523;SDS011;63074;44.696;10.358;2024-03-07T12:20:38;3.38;;;1.40;;
74523;SDS011;63074;44.696;10.358;2024-03-07T12:23:06;4.65;;;2.58;;
74523;SDS011;63074;44.696;10.358;2024-03-07T12:25:36;3.35;;;2.15;;
74523;SDS011;63074;44.696;10.358;2024-03-07T12:28:05;4.47;;;1.98;;
74523;SDS011;63074;44.696;10.358;2024-03-07T12:30:48;4.10;;;1.80;;
74523;SDS011;63074;44.696;10.358;2024-03-07T12:33:16;4.93;;;1.63;;
74523;SDS011;63074;44.696;10.358;2024-03-07T12:35:45;4.40;;;2.67;;
74523;SDS011;63074;44.696;10.358;2024-03-07T12:38:13;3.95;;;2.10;;
74523;SDS011;63074;44.696;10.358;2024-03-07T12:40:44;3.40;;;1.92;;
74523;SDS011;63074;44.696;10.358;2024-03-07T12:43:14;4.05;;;1.92;;
74523;SDS011;63074;44.696;10.358;2024-03-07T12:45:48;3.30;;;2.10;;
74523;SDS011;63074;44.696;10.358;2024-03-07T12:48:15;3.25;;;1.90;;
74523;SDS011;63074;44.696;10.358;2024-03-07T12:50:46;3.97;;;1.95;;
74523;SDS011;63074;44.696;10.358;2024-03-07T12:53:19;3.13;;;1.38;;
74523;SDS011;63074;44.696;10.358;2024-03-07T12:55:47;3.60;;;2.42;;
74523;SDS011;63074;44.696;10.358;2024-03-07T12:58:13;4.78;;;2.42;;
74523;SDS011;63074;44.696;10.358;2024-03-07T13:00:40;3.85;;;1.90;;
74523;SDS011;63074;44.696;10.358;2024-03-07T13:03:07;3.53;;;2.35;;
74523;SDS011;63074;44.696;10.358;2024-03-07T13:05:39;3.63;;;2.53;;
74523;SDS011;63074;44.696;10.358;2024-03-07T13:08:07;4.47;;;2.22;;
74523;SDS011;63074;44.696;10.358;2024-03-07T13:10:43;4.05;;;2.08;;
74523;SDS011;63074;44.696;10.358;2024-03-07T13:13:10;3.30;;;1.55;;
74523;SDS011;63074;44.696;10.358;2024-03-07T13:15:37;3.78;;;2.33;;
74523;SDS011;63074;44.696;10.358;2024-03-07T13:18:04;5.13;;;2.20;;
74523;SDS011;63074;44.696;10.358;2024-03-07T13:20:31;4.20;;;2.40;;
74523;SDS011;63074;44.696;10.358;2024-03-07T13:22:57;2.60;;;1.75;;
74523;SDS011;63074;44.696;10.358;2024-03-07T13:25:26;3.75;;;1.70;;
74523;SDS011;63074;44.696;10.358;2024-03-07T13:30:23;4.82;;;1.80;;
74523;SDS011;63074;44.696;10.358;2024-03-07T13:32:52;3.47;;;1.95;;
74523;SDS011;63074;44.696;10.358;2024-03-07T13:35:20;3.55;;;1.73;;
74523;SDS011;63074;44.696;10.358;2024-03-07T13:37:49;3.40;;;1.60;;
74523;SDS011;63074;44.696;10.358;2024-03-07T13:40:19;3.53;;;1.40;;
74523;SDS011;63074;44.696;10.358;2024-03-07T13:42:52;3.47;;;1.73;;
74523;SDS011;63074;44.696;10.358;2024-03-07T13:45:22;4.22;;;2.15;;
74523;SDS011;63074;44.696;10.358;2024-03-07T13:47:51;3.95;;;1.88;;
74523;SDS011;63074;44.696;10.358;2024-03-07T13:50:20;4.03;;;1.60;;
74523;SDS011;63074;44.696;10.358;2024-03-07T13:52:49;3.33;;;1.65;;
74523;SDS011;63074;44.696;10.358;2024-03-07T13:55:30;3.05;;;1.48;;
74523;SDS011;63074;44.696;10.358;2024-03-07T13:57:58;2.90;;;1.85;;
74523;SDS011;63074;44.696;10.358;2024-03-07T14:00:35;3.58;;;2.30;;
74523;SDS011;63074;44.696;10.358;2024-03-07T14:06:14;3.33;;;1.60;;
74523;SDS011;63074;44.696;10.358;2024-03-07T14:31:19;2.40;;;1.20;;
74523;SDS011;63074;44.696;10.358;2024-03-07T14:36:35;4.45;;;2.10;;
74523;SDS011;63074;44.696;10.358;2024-03-07T14:39:10;3.03;;;2.00;;
74523;SDS011;63074;44.696;10.358;2024-03-07T14:41:49;2.65;;;1.65;;
74523;SDS011;63074;44.696;10.358;2024-03-07T14:44:19;1.73;;;1.40;;
74523;SDS011;63074;44.696;10.358;2024-03-07T14:46:47;3.53;;;1.95;;
74523;SDS011;63074;44.696;10.358;2024-03-07T14:49:18;3.97;;;1.98;;
74523;SDS011;63074;44.696;10.358;2024-03-07T14:51:45;3.92;;;1.58;;
74523;SDS011;63074;44.696;10.358;2024-03-07T14:54:14;2.58;;;1.73;;
74523;SDS011;63074;44.696;10.358;2024-03-07T14:56:40;4.43;;;2.63;;
74523;SDS011;63074;44.696;10.358;2024-03-07T14:59:06;3.80;;;1.42;;
74523;SDS011;63074;44.696;10.358;2024-03-07T15:01:33;3.42;;;1.00;;
74523;SDS011;63074;44.696;10.358;2024-03-07T15:04:00;2.55;;;1.48;;
74523;SDS011;63074;44.696;10.358;2024-03-07T15:06:31;3.88;;;1.85;;
74523;SDS011;63074;44.696;10.358;2024-03-07T15:08:59;3.05;;;1.98;;
74523;SDS011;63074;44.696;10.358;2024-03-07T15:11:28;3.85;;;1.70;;
74523;SDS011;63074;44.696;10.358;2024-03-07T15:13:59;4.47;;;2.13;;
74523;SDS011;63074;44.696;10.358;2024-03-07T15:16:29;2.58;;;1.75;;
74523;SDS011;63074;44.696;10.358;2024-03-07T15:19:00;3.10;;;1.05;;
74523;SDS011;63074;44.696;10.358;2024-03-07T15:21:26;4.63;;;1.75;;
74523;SDS011;63074;44.696;10.358;2024-03-07T15:23:54;3.03;;;1.58;;
74523;SDS011;63074;44.696;10.358;2024-03-07T15:26:20;3.92;;;2.03;;
74523;SDS011;63074;44.696;10.358;2024-03-07T15:28:49;3.88;;;2.60;;
74523;SDS011;63074;44.696;10.358;2024-03-07T15:31:16;3.95;;;2.17;;